createdAt,value
2018-10-01T00:01:39.645Z,10.75
2018-10-01T00:04:43.963Z,10.57
2018-10-01T00:07:48.272Z,12.43
2018-10-01T00:10:52.648Z,11.67
2018-10-01T00:13:56.972Z,11.63
2018-10-01T00:17:01.302Z,11.77
2018-10-01T00:20:10.858Z,11.13
2018-10-01T00:23:15.215Z,11.13
2018-10-01T00:26:19.536Z,10.10
2018-10-01T00:29:23.929Z,10.67
2018-10-01T00:32:28.239Z,10.30
2018-10-01T00:35:32.595Z,10.70
2018-10-01T00:38:37.108Z,9.73
2018-10-01T00:41:41.769Z,9.47
2018-10-01T00:44:46.136Z,10.20
2018-10-01T00:47:50.525Z,9.73
2018-10-01T00:50:54.891Z,9.87
2018-10-01T00:53:59.228Z,9.60
2018-10-01T00:57:03.556Z,9.37
2018-10-01T01:00:07.970Z,10.17
2018-10-01T01:03:12.296Z,10.17
2018-10-01T01:06:16.661Z,9.90
2018-10-01T01:09:21.107Z,9.13
2018-10-01T01:12:25.466Z,8.55
2018-10-01T01:15:29.808Z,9.40
2018-10-01T01:18:34.166Z,8.60
2018-10-01T01:21:39.602Z,9.18
2018-10-01T01:24:43.948Z,9.20
2018-10-01T01:27:48.430Z,9.50
2018-10-01T01:30:52.750Z,9.97
2018-10-01T01:33:57.154Z,10.90
2018-10-01T01:37:01.516Z,9.80
2018-10-01T01:40:06.542Z,10.07
2018-10-01T01:43:10.869Z,10.23
2018-10-01T01:46:15.221Z,11.03
2018-10-01T01:49:19.600Z,10.27
2018-10-01T01:52:23.940Z,10.80
2018-10-01T01:55:28.280Z,11.47
2018-10-01T01:58:32.776Z,10.80
2018-10-01T02:01:37.079Z,10.90
2018-10-01T02:04:41.396Z,11.07
2018-10-01T02:07:45.716Z,11.33
2018-10-01T02:10:50.060Z,12.27
2018-10-01T02:13:54.372Z,11.77
2018-10-01T02:16:58.678Z,12.90
2018-10-01T02:20:02.980Z,12.53
2018-10-01T02:23:07.511Z,12.53
2018-10-01T02:26:11.809Z,14.27
2018-10-01T02:29:16.160Z,13.83
2018-10-01T02:32:20.522Z,15.40
2018-10-01T02:35:24.818Z,17.73
2018-10-01T02:38:29.125Z,16.50
2018-10-01T02:41:33.421Z,16.63
2018-10-01T02:44:37.765Z,15.67
2018-10-01T02:47:42.085Z,16.37
2018-10-01T02:50:46.401Z,16.10
2018-10-01T02:53:56.048Z,17.33
2018-10-01T02:57:01.237Z,13.57
2018-10-01T03:00:06.907Z,14.93
2018-10-01T03:03:11.231Z,15.20
2018-10-01T03:06:15.525Z,17.17
2018-10-01T03:09:19.858Z,18.30
2018-10-01T03:12:24.225Z,17.37
2018-10-01T03:15:28.465Z,18.53
2018-10-01T03:18:32.859Z,17.63
2018-10-01T03:21:38.348Z,20.30
2018-10-01T03:24:42.683Z,19.50
2018-10-01T03:27:47.013Z,20.60
2018-10-01T03:30:51.431Z,21.37
2018-10-01T03:33:55.909Z,22.80
2018-10-01T03:37:00.240Z,21.90
2018-10-01T03:40:04.817Z,22.30
2018-10-01T03:43:10.866Z,24.13
2018-10-01T03:46:15.215Z,22.67
2018-10-01T03:49:19.540Z,23.73
2018-10-01T03:52:23.849Z,21.90
2018-10-01T03:55:28.149Z,23.07
2018-10-01T03:58:32.478Z,22.23
2018-10-01T04:01:36.814Z,22.30
2018-10-01T04:04:41.167Z,23.00
2018-10-01T04:07:45.474Z,22.63
2018-10-01T04:10:49.786Z,22.97
2018-10-01T04:13:54.090Z,21.90
2018-10-01T04:16:58.444Z,22.27
2018-10-01T04:20:03.177Z,21.67
2018-10-01T04:23:07.713Z,22.02
2018-10-01T04:26:12.311Z,20.57
2018-10-01T04:29:16.712Z,21.80
2018-10-01T04:32:21.032Z,20.77
2018-10-01T04:35:25.441Z,21.37
2018-10-01T04:38:29.813Z,21.87
2018-10-01T04:41:34.139Z,21.00
2018-10-01T04:44:38.440Z,20.70
2018-10-01T04:47:42.785Z,21.73
2018-10-01T04:50:47.130Z,21.80
2018-10-01T04:53:51.522Z,21.23
2018-10-01T04:56:55.861Z,21.30
2018-10-01T05:00:00.160Z,19.00
2018-10-01T05:03:04.530Z,20.83
2018-10-01T05:06:09.249Z,20.13
2018-10-01T05:09:13.558Z,18.50
2018-10-01T05:12:17.867Z,18.03
2018-10-01T05:15:22.172Z,18.33
2018-10-01T05:18:26.526Z,19.80
2018-10-01T05:21:30.840Z,17.10
2018-10-01T05:24:35.145Z,16.07
2018-10-01T05:27:39.488Z,15.95
2018-10-01T05:30:43.825Z,16.00
2018-10-01T05:33:48.138Z,14.87
2018-10-01T05:36:52.455Z,14.23
2018-10-01T05:39:56.825Z,14.73
2018-10-01T05:43:01.154Z,15.30
2018-10-01T05:46:05.518Z,16.13
2018-10-01T05:49:09.853Z,14.67
2018-10-01T05:52:14.213Z,15.77
2018-10-01T05:55:18.541Z,15.80
2018-10-01T05:58:22.907Z,15.30
2018-10-01T06:01:27.243Z,12.90
2018-10-01T06:04:31.576Z,10.40
2018-10-01T06:07:35.912Z,7.90
2018-10-01T06:10:40.255Z,8.30
2018-10-01T06:13:44.668Z,5.10
2018-10-01T06:16:48.971Z,3.57
2018-10-01T06:19:53.259Z,1.73
2018-10-01T06:22:57.586Z,1.90
2018-10-01T06:26:01.881Z,2.00
2018-10-01T06:29:06.210Z,1.60
2018-10-01T06:32:10.586Z,1.47
2018-10-01T06:35:14.871Z,1.40
2018-10-01T06:38:19.252Z,1.87
2018-10-01T06:41:23.782Z,1.90
2018-10-01T06:44:28.102Z,1.90
2018-10-01T06:47:32.398Z,2.10
2018-10-01T06:50:36.707Z,6.60
2018-10-01T06:53:41.063Z,11.17
2018-10-01T06:56:45.405Z,11.87
2018-10-01T06:59:49.736Z,12.17
2018-10-01T07:02:54.048Z,11.40
2018-10-01T07:05:58.825Z,12.63
2018-10-01T07:09:03.085Z,11.97
2018-10-01T07:12:07.441Z,13.00
2018-10-01T07:15:11.763Z,13.07
2018-10-01T07:18:16.176Z,13.67
2018-10-01T07:21:20.488Z,13.83
2018-10-01T07:24:24.938Z,12.60
2018-10-01T07:27:29.303Z,12.00
2018-10-01T07:30:33.629Z,12.20
2018-10-01T07:33:38.114Z,11.70
2018-10-01T07:36:42.583Z,10.90
2018-10-01T07:39:47.114Z,11.87
2018-10-01T07:42:51.493Z,10.73
2018-10-01T07:45:55.813Z,11.40
2018-10-01T07:49:00.152Z,8.03
2018-10-01T07:52:04.551Z,8.17
2018-10-01T07:55:09.086Z,6.83
2018-10-01T07:58:13.491Z,7.23
2018-10-01T08:01:17.896Z,6.80
2018-10-01T08:04:22.273Z,5.60
2018-10-01T08:07:26.600Z,4.00
2018-10-01T08:10:31.195Z,4.10
2018-10-01T08:13:35.744Z,4.63
2018-10-01T08:16:40.387Z,4.47
2018-10-01T08:19:44.807Z,4.40
2018-10-01T08:22:49.370Z,5.07
2018-10-01T08:25:53.679Z,5.47
2018-10-01T08:28:58.380Z,5.80
2018-10-01T08:32:02.903Z,6.10
2018-10-01T08:35:07.363Z,7.30
2018-10-01T08:38:11.930Z,6.80
2018-10-01T08:41:16.230Z,6.60
2018-10-01T08:44:20.713Z,6.50
2018-10-01T08:47:25.229Z,6.00
2018-10-01T08:50:39.489Z,7.40
2018-10-01T08:54:47.886Z,6.40
2018-10-01T08:57:52.401Z,6.57
2018-10-01T09:00:56.969Z,6.20
2018-10-01T09:04:01.288Z,6.07
2018-10-01T09:07:06.307Z,6.07
2018-10-01T09:10:10.928Z,6.50
2018-10-01T09:13:15.374Z,6.87
2018-10-01T09:16:19.878Z,6.90
2018-10-01T09:19:24.337Z,7.17
2018-10-01T09:22:28.659Z,7.12
2018-10-01T09:25:34.419Z,7.70
2018-10-01T09:28:39.001Z,8.20
2018-10-01T09:31:43.827Z,7.50
2018-10-01T09:34:52.519Z,7.43
2018-10-01T09:37:57.055Z,7.67
2018-10-01T09:41:01.878Z,8.40
2018-10-01T09:44:06.385Z,7.60
2018-10-01T09:47:10.985Z,8.03
2018-10-01T09:50:15.433Z,8.87
2018-10-01T09:53:19.932Z,8.77
2018-10-01T09:56:24.683Z,8.53
2018-10-01T09:59:29.249Z,9.03
2018-10-01T10:02:33.844Z,9.40
2018-10-01T10:05:39.330Z,9.73
2018-10-01T10:08:43.953Z,10.90
2018-10-01T10:11:48.384Z,11.63
2018-10-01T10:14:53.072Z,11.43
2018-10-01T10:17:57.610Z,10.50
2018-10-01T10:21:02.148Z,10.83
2018-10-01T10:24:07.425Z,11.87
2018-10-01T10:27:11.919Z,10.90
2018-10-01T10:30:16.298Z,9.90
2018-10-01T10:33:21.003Z,9.53
2018-10-01T10:36:25.399Z,8.33
2018-10-01T10:39:29.861Z,9.63
2018-10-01T10:42:34.265Z,8.40
2018-10-01T10:45:39.438Z,9.93
2018-10-01T10:48:44.007Z,10.07
2018-10-01T10:51:48.479Z,9.90
2018-10-01T10:54:53.301Z,9.87
2018-10-01T10:57:58.093Z,11.35
2018-10-01T11:01:02.540Z,11.27
2018-10-01T11:04:06.972Z,12.43
2018-10-01T11:07:11.505Z,11.03
2018-10-01T11:10:15.756Z,10.80
2018-10-01T11:13:20.241Z,10.40
2018-10-01T11:16:24.920Z,10.60
2018-10-01T11:19:29.335Z,10.53
2018-10-01T11:22:33.679Z,10.95
2018-10-01T11:25:38.726Z,9.43
2018-10-01T11:28:43.154Z,10.47
2018-10-01T11:31:47.792Z,9.27
2018-10-01T11:34:52.699Z,10.03
2018-10-01T11:37:56.942Z,9.97
2018-10-01T11:41:01.357Z,9.67
2018-10-01T11:44:05.998Z,9.17
2018-10-01T11:47:10.419Z,10.87
2018-10-01T11:50:14.848Z,10.17
2018-10-01T11:53:19.434Z,9.90
2018-10-01T11:56:24.050Z,10.23
2018-10-01T11:59:28.377Z,9.60
2018-10-01T12:02:33.097Z,10.43
2018-10-01T12:05:38.255Z,10.13
2018-10-01T12:08:42.807Z,10.23
2018-10-01T12:11:47.172Z,10.93
2018-10-01T12:14:51.593Z,11.40
2018-10-01T12:17:56.360Z,11.03
2018-10-01T12:21:00.962Z,11.27
2018-10-01T12:24:05.807Z,11.10
2018-10-01T12:27:10.983Z,12.20
2018-10-01T12:30:43.440Z,10.83
2018-10-01T12:33:50.513Z,11.27
2018-10-01T12:36:54.850Z,11.37
2018-10-01T12:39:59.149Z,12.90
2018-10-01T12:43:03.499Z,12.33
2018-10-01T12:46:07.895Z,11.67
2018-10-01T12:49:12.250Z,11.97
2018-10-01T12:52:16.961Z,12.13
2018-10-01T12:55:21.259Z,12.83
2018-10-01T12:58:25.657Z,12.27
2018-10-01T13:01:30.250Z,13.13
2018-10-01T13:04:34.779Z,12.63
2018-10-01T13:07:39.222Z,12.57
2018-10-01T13:10:43.648Z,13.03
2018-10-01T13:13:48.028Z,12.57
2018-10-01T13:16:53.454Z,11.87
2018-10-01T13:19:57.940Z,12.73
2018-10-01T13:23:02.336Z,13.03
2018-10-01T13:26:07.228Z,12.50
2018-10-01T13:29:11.612Z,14.13
2018-10-01T13:32:18.979Z,13.67
2018-10-01T13:35:23.708Z,12.93
2018-10-01T13:38:33.804Z,14.47
2018-10-01T13:41:48.542Z,14.07
2018-10-01T13:44:55.317Z,14.10
2018-10-01T13:48:06.425Z,14.50
2018-10-01T13:51:16.902Z,15.13
2018-10-01T13:54:32.131Z,13.43
2018-10-01T13:57:45.104Z,15.47
2018-10-01T14:00:50.957Z,13.47
2018-10-01T14:03:59.026Z,14.73
2018-10-01T14:07:11.991Z,15.70
2018-10-01T14:10:50.103Z,16.30
2018-10-01T14:14:00.941Z,15.67
2018-10-01T14:17:12.827Z,14.73
2018-10-01T14:20:24.877Z,16.73
2018-10-01T14:23:36.804Z,15.33
2018-10-01T14:30:04.329Z,16.67
2018-10-01T14:33:09.030Z,16.90
2018-10-01T14:36:13.408Z,15.80
2018-10-01T14:39:17.810Z,17.40
2018-10-01T14:42:22.231Z,17.53
2018-10-01T14:45:26.589Z,17.73
2018-10-01T14:48:31.025Z,17.37
2018-10-01T14:51:35.304Z,17.33
2018-10-01T14:54:39.658Z,17.97
2018-10-01T14:57:44.082Z,17.40
2018-10-01T15:00:48.557Z,17.40
2018-10-01T15:03:53.096Z,19.15
2018-10-01T15:06:57.410Z,16.90
2018-10-01T15:10:01.825Z,17.67
2018-10-01T15:13:06.385Z,17.53
2018-10-01T15:16:10.818Z,18.07
2018-10-01T15:19:15.187Z,16.83
2018-10-01T15:22:19.536Z,18.27
2018-10-01T15:25:23.972Z,18.57
2018-10-01T15:28:28.383Z,18.80
2018-10-01T15:31:32.926Z,18.87
2018-10-01T15:34:37.377Z,19.47
2018-10-01T15:37:41.946Z,18.57
2018-10-01T15:40:46.312Z,18.53
2018-10-01T15:43:50.708Z,18.13
2018-10-01T15:46:55.191Z,19.10
2018-10-01T15:49:59.589Z,17.93
2018-10-01T15:54:06.678Z,19.17
2018-10-01T15:57:11.051Z,17.37
2018-10-01T16:00:15.468Z,18.57
2018-10-01T16:03:19.929Z,20.00
2018-10-01T16:06:24.234Z,19.63
2018-10-01T16:09:28.619Z,18.30
2018-10-01T16:12:32.946Z,20.03
2018-10-01T16:15:37.268Z,19.33
2018-10-01T16:18:41.651Z,21.17
2018-10-01T16:24:55.659Z,18.43
2018-10-01T16:28:00.017Z,17.50
2018-10-01T16:31:04.472Z,16.37
2018-10-01T16:34:08.847Z,18.00
2018-10-01T16:37:13.406Z,19.10
2018-10-01T16:40:17.703Z,17.93
2018-10-01T16:46:32.141Z,17.43
2018-10-01T16:49:36.540Z,19.77
2018-10-01T16:52:40.991Z,18.67
2018-10-01T16:55:45.316Z,19.57
2018-10-01T16:58:49.672Z,19.97
2018-10-01T17:01:53.991Z,18.47
2018-10-01T17:04:58.566Z,20.17
2018-10-01T17:08:03.364Z,20.53
2018-10-01T17:11:07.998Z,16.93
2018-10-01T17:14:12.405Z,16.93
2018-10-01T17:17:16.828Z,17.47
2018-10-01T17:20:21.220Z,16.37
2018-10-01T17:23:25.563Z,18.13
2018-10-01T17:26:30.095Z,18.53
2018-10-01T17:29:34.420Z,19.70
2018-10-01T17:32:38.757Z,20.20
2018-10-01T17:35:43.189Z,20.90
2018-10-01T17:38:47.611Z,22.07
2018-10-01T17:41:51.995Z,23.43
2018-10-01T17:44:56.416Z,23.17
2018-10-01T17:48:00.783Z,23.90
2018-10-01T17:51:05.554Z,20.27
2018-10-01T17:54:10.010Z,20.72
2018-10-01T17:57:14.279Z,19.93
2018-10-01T18:00:18.675Z,21.33
2018-10-01T18:03:22.992Z,22.77
2018-10-01T18:06:27.425Z,21.43
2018-10-01T18:09:31.799Z,20.07
2018-10-01T18:12:36.232Z,21.27
2018-10-01T18:15:40.649Z,19.80
2018-10-01T18:18:45.220Z,20.27
2018-10-01T18:21:49.619Z,19.10
2018-10-01T18:24:54.094Z,19.17
2018-10-01T18:27:58.464Z,18.60
2018-10-01T18:31:02.872Z,18.90
2018-10-01T18:34:07.288Z,19.40
2018-10-01T18:37:11.676Z,17.30
2018-10-01T18:40:16.156Z,17.50
2018-10-01T18:43:20.443Z,15.30
2018-10-01T18:46:24.914Z,14.57
2018-10-01T18:49:29.331Z,15.57
2018-10-01T18:52:33.699Z,14.37
2018-10-01T18:55:38.128Z,14.93
2018-10-01T18:58:42.489Z,14.67
2018-10-01T19:01:46.913Z,14.58
2018-10-01T19:04:51.242Z,15.17
2018-10-01T19:07:55.528Z,14.67
2018-10-01T19:10:59.833Z,16.83
2018-10-01T19:14:04.159Z,15.70
2018-10-01T19:17:08.483Z,18.13
2018-10-01T19:20:12.777Z,16.67
2018-10-01T19:23:17.204Z,16.93
2018-10-01T19:26:21.574Z,16.77
2018-10-01T19:29:25.943Z,17.95
2018-10-01T19:32:30.351Z,18.13
2018-10-01T19:35:35.087Z,15.77
2018-10-01T19:38:39.607Z,17.37
2018-10-01T19:41:43.928Z,16.03
2018-10-01T19:44:48.801Z,15.83
2018-10-01T19:47:53.228Z,15.77
2018-10-01T19:50:57.651Z,16.60
2018-10-01T19:54:02.067Z,17.00
2018-10-01T19:57:06.582Z,16.53
2018-10-01T20:00:11.085Z,16.53
2018-10-01T20:03:15.598Z,17.07
2018-10-01T20:06:19.913Z,15.07
2018-10-01T20:09:24.336Z,15.60
2018-10-01T20:12:28.680Z,15.80
2018-10-01T20:15:33.150Z,16.10
2018-10-01T20:18:37.501Z,16.63
2018-10-01T20:21:41.848Z,16.10
2018-10-01T20:24:46.240Z,16.27
2018-10-01T20:27:50.582Z,16.17
2018-10-01T20:30:54.845Z,16.07
2018-10-01T20:33:59.159Z,15.37
2018-10-01T20:37:03.984Z,16.33
2018-10-01T20:40:09.502Z,16.03
2018-10-01T20:43:13.901Z,15.20
2018-10-01T20:46:18.307Z,16.27
2018-10-01T20:49:23.817Z,15.37
2018-10-01T20:52:28.360Z,15.93
2018-10-01T20:55:32.550Z,15.00
2018-10-01T20:58:37.060Z,15.27
2018-10-01T21:01:41.412Z,14.47
2018-10-01T21:04:45.710Z,14.33
2018-10-01T21:07:50.208Z,13.73
2018-10-01T21:10:54.574Z,13.63
2018-10-01T21:13:58.900Z,13.90
2018-10-01T21:17:03.218Z,13.67
2018-10-01T21:20:07.536Z,12.70
2018-10-01T21:23:11.833Z,11.40
2018-10-01T21:26:16.176Z,11.37
2018-10-01T21:29:20.517Z,10.50
2018-10-01T21:32:24.975Z,10.18
2018-10-01T21:35:29.420Z,10.90
2018-10-01T21:38:33.803Z,10.57
2018-10-01T21:41:38.112Z,11.57
2018-10-01T21:44:42.518Z,11.00
2018-10-01T21:47:46.823Z,12.03
2018-10-01T21:50:51.120Z,12.20
2018-10-01T21:53:55.453Z,11.70
2018-10-01T21:57:00.029Z,12.33
2018-10-01T22:00:05.602Z,12.83
2018-10-01T22:03:10.025Z,12.55
2018-10-01T22:06:14.308Z,13.77
2018-10-01T22:09:18.593Z,12.00
2018-10-01T22:12:22.911Z,13.80
2018-10-01T22:15:31.286Z,11.50
2018-10-01T22:18:35.593Z,12.23
2018-10-01T22:21:40.126Z,13.58
2018-10-01T22:24:44.406Z,12.30
2018-10-01T22:27:48.700Z,12.73
2018-10-01T22:30:53.022Z,12.73
2018-10-01T22:33:57.320Z,13.90
2018-10-01T22:37:01.696Z,13.13
2018-10-01T22:40:06.360Z,13.90
2018-10-01T22:43:10.663Z,13.23
2018-10-01T22:46:15.018Z,13.87
2018-10-01T22:49:19.375Z,14.73
2018-10-01T22:52:23.707Z,14.57
2018-10-01T22:55:28.032Z,13.90
2018-10-01T22:58:32.321Z,14.97
2018-10-01T23:01:36.616Z,15.70
2018-10-01T23:04:40.903Z,13.97
2018-10-01T23:07:45.225Z,15.30
2018-10-01T23:10:49.506Z,13.87
2018-10-01T23:13:53.836Z,13.63
2018-10-01T23:16:58.132Z,10.93
2018-10-01T23:20:02.416Z,10.43
2018-10-01T23:23:06.716Z,5.10
2018-10-01T23:26:10.999Z,7.10
2018-10-01T23:29:15.292Z,7.80
2018-10-01T23:32:19.625Z,7.40
2018-10-01T23:35:23.879Z,8.37
2018-10-01T23:38:28.220Z,6.50
2018-10-01T23:41:32.472Z,6.90
2018-10-01T23:44:36.762Z,5.00
2018-10-01T23:47:41.106Z,5.73
2018-10-01T23:50:45.374Z,5.93
2018-10-01T23:53:49.659Z,6.50
2018-10-01T23:56:54.009Z,7.03
2018-10-01T23:59:58.377Z,7.10
